createdAt,value
2022-08-05T00:00:21.800Z,95735.13
2022-08-05T00:02:52.267Z,95738.97
2022-08-05T00:06:02.985Z,95737.75
2022-08-05T00:08:34.357Z,95729.53
2022-08-05T00:11:01.624Z,95737.97
2022-08-05T00:13:38.223Z,95730.88
2022-08-05T00:16:12.664Z,95709.53
2022-08-05T00:18:45.032Z,95731.28
2022-08-05T00:21:18.334Z,95733.94
2022-08-05T00:23:53.539Z,95735.00
2022-08-05T00:26:35.255Z,95726.81
2022-08-05T00:29:04.183Z,95736.00
2022-08-05T00:31:53.571Z,95726.59
2022-08-05T00:34:55.374Z,95721.78
2022-08-05T00:37:14.021Z,95727.66
2022-08-05T00:39:44.163Z,95722.19
2022-08-05T00:42:37.039Z,95728.72
2022-08-05T00:45:11.791Z,95732.59
2022-08-05T00:47:53.070Z,95731.84
2022-08-05T00:50:25.715Z,95737.00
2022-08-05T00:52:55.301Z,95729.06
2022-08-05T00:55:34.022Z,95735.91
2022-08-05T00:58:11.819Z,95732.59
2022-08-05T01:00:42.427Z,95738.97
2022-08-05T01:03:12.651Z,95737.97
2022-08-05T01:05:54.549Z,95732.22
2022-08-05T01:08:42.369Z,95731.06
2022-08-05T01:11:38.740Z,95740.69
2022-08-05T01:14:31.519Z,95732.97
2022-08-05T01:17:27.551Z,95728.44
2022-08-05T01:20:39.304Z,95734.25
2022-08-05T01:23:15.146Z,95734.72
2022-08-05T01:26:31.769Z,95726.25
2022-08-05T01:29:14.753Z,95727.84
2022-08-05T01:31:49.770Z,95730.13
2022-08-05T01:34:27.391Z,95728.06
2022-08-05T01:37:03.607Z,95730.00
2022-08-05T01:39:47.340Z,95718.25
2022-08-05T01:42:20.512Z,95721.78
2022-08-05T01:44:54.379Z,95724.28
2022-08-05T01:47:39.007Z,95723.25
2022-08-05T01:50:31.197Z,95722.47
2022-08-05T01:53:05.384Z,95720.72
2022-08-05T01:55:38.836Z,95716.03
2022-08-05T01:58:29.619Z,95721.69
2022-08-05T02:01:01.738Z,95718.91
2022-08-05T02:03:45.769Z,95711.69
2022-08-05T02:06:37.539Z,95713.47
2022-08-05T02:09:06.020Z,95709.47
2022-08-05T02:12:10.397Z,95713.25
2022-08-05T02:15:03.064Z,95714.13
2022-08-05T02:18:28.846Z,95717.25
2022-08-05T02:20:31.524Z,95710.41
2022-08-05T02:23:11.688Z,95709.22
2022-08-05T02:25:49.267Z,95708.59
2022-08-05T02:28:28.625Z,95706.25
2022-08-05T02:31:08.259Z,95702.81
2022-08-05T02:33:57.416Z,95701.34
2022-08-05T02:36:31.478Z,95697.75
2022-08-05T02:39:03.682Z,95697.59
2022-08-05T02:41:57.477Z,95695.66
2022-08-05T02:44:29.432Z,95695.03
2022-08-05T02:47:01.123Z,95693.47
2022-08-05T02:49:37.940Z,95693.75
2022-08-05T02:52:29.639Z,95705.81
2022-08-05T02:55:05.408Z,95689.72
2022-08-05T02:58:20.177Z,95704.22
2022-08-05T03:00:27.016Z,95688.78
2022-08-05T03:02:58.285Z,95699.22
2022-08-05T03:06:53.575Z,95689.28
2022-08-05T03:08:19.536Z,95683.66
2022-08-05T03:11:41.097Z,95697.56
2022-08-05T03:13:51.965Z,95700.63
2022-08-05T03:16:31.960Z,95688.59
2022-08-05T03:19:12.821Z,95700.13
2022-08-05T03:21:49.817Z,95677.56
2022-08-05T03:24:30.215Z,95695.34
2022-08-05T03:27:00.760Z,95676.78
2022-08-05T03:29:46.002Z,95681.38
2022-08-05T03:32:21.474Z,95687.16
2022-08-05T03:35:00.874Z,95683.25
2022-08-05T03:37:32.026Z,95685.97
2022-08-05T03:40:31.431Z,95687.19
2022-08-05T03:43:58.454Z,95683.13
2022-08-05T03:45:57.695Z,95682.81
2022-08-05T03:48:28.987Z,95681.69
2022-08-05T03:52:49.490Z,95690.94
2022-08-05T03:55:51.937Z,95678.94
2022-08-05T03:57:16.411Z,95671.53
2022-08-05T03:59:55.737Z,95665.59
2022-08-05T04:02:38.549Z,95671.34
2022-08-05T04:05:10.607Z,95667.84
2022-08-05T04:07:58.212Z,95659.72
2022-08-05T04:10:37.637Z,95655.84
2022-08-05T04:13:08.768Z,95649.84
2022-08-05T04:15:38.167Z,95646.91
2022-08-05T04:18:25.673Z,95650.09
2022-08-05T04:20:56.515Z,95636.00
2022-08-05T04:24:00.208Z,95639.59
2022-08-05T04:26:17.400Z,95639.41
2022-08-05T04:28:51.086Z,95626.81
2022-08-05T04:31:27.594Z,95638.28
2022-08-05T04:34:32.270Z,95645.25
2022-08-05T04:37:03.477Z,95617.44
2022-08-05T04:39:35.450Z,95632.00
2022-08-05T04:42:04.955Z,95644.13
2022-08-05T04:44:33.890Z,95623.38
2022-08-05T04:47:09.618Z,95628.06
2022-08-05T04:50:01.319Z,95630.81
2022-08-05T04:52:29.133Z,95617.66
2022-08-05T04:55:13.974Z,95618.78
2022-08-05T04:57:47.459Z,95620.94
2022-08-05T05:00:17.708Z,95602.75
2022-08-05T05:02:46.708Z,95605.03
2022-08-05T05:05:26.234Z,95609.06
2022-08-05T05:08:26.610Z,95603.97
2022-08-05T05:10:59.378Z,95612.41
2022-08-05T05:13:32.268Z,95610.72
2022-08-05T05:16:12.218Z,95619.72
2022-08-05T05:19:09.012Z,95614.09
2022-08-05T05:21:34.310Z,95634.38
2022-08-05T05:24:09.071Z,95622.00
2022-08-05T05:26:38.097Z,95621.03
2022-08-05T05:29:14.789Z,95615.41
2022-08-05T05:31:46.080Z,95612.25
2022-08-05T05:34:16.647Z,95604.22
2022-08-05T05:36:47.205Z,95614.69
2022-08-05T05:39:19.939Z,95612.03
2022-08-05T05:41:54.441Z,95606.56
2022-08-05T05:44:37.543Z,95596.38
2022-08-05T05:47:21.563Z,95611.53
2022-08-05T05:49:56.511Z,95610.53
2022-08-05T05:52:28.533Z,95610.28
2022-08-05T05:55:10.259Z,95600.06
2022-08-05T05:57:52.578Z,95602.94
2022-08-05T06:00:27.550Z,95609.47
2022-08-05T06:02:56.669Z,95607.66
2022-08-05T06:05:25.597Z,95609.19
2022-08-05T06:08:01.107Z,95610.25
2022-08-05T06:10:36.722Z,95613.38
2022-08-05T06:13:06.475Z,95610.88
2022-08-05T06:16:28.517Z,95598.94
2022-08-05T06:18:31.009Z,95597.75
2022-08-05T06:21:01.200Z,95610.03
2022-08-05T06:23:43.690Z,95610.63
2022-08-05T06:26:21.495Z,95593.97
2022-08-05T06:28:52.996Z,95608.69
2022-08-05T06:31:22.501Z,95598.91
2022-08-05T06:34:07.971Z,95602.78
2022-08-05T06:36:56.789Z,95601.28
2022-08-05T06:39:28.044Z,95587.06
2022-08-05T06:41:59.130Z,95591.78
2022-08-05T06:44:28.364Z,95587.47
2022-08-05T06:46:58.096Z,95582.25
2022-08-05T06:50:01.618Z,95586.44
2022-08-05T06:52:36.784Z,95590.94
2022-08-05T06:55:08.336Z,95579.88
2022-08-05T06:58:02.248Z,95592.28
2022-08-05T07:00:26.458Z,95588.97
2022-08-05T07:02:58.697Z,95582.41
2022-08-05T07:05:31.933Z,95587.69
2022-08-05T07:08:07.251Z,95588.41
2022-08-05T07:10:52.856Z,95579.63
2022-08-05T07:13:56.970Z,95587.50
2022-08-05T07:18:01.976Z,95584.09
2022-08-05T07:22:30.121Z,95589.88
2022-08-05T07:25:23.515Z,95591.38
2022-08-05T07:27:58.469Z,95605.84
2022-08-05T07:30:34.195Z,95619.03
2022-08-05T07:33:05.213Z,95611.22
2022-08-05T07:36:04.783Z,95606.69
2022-08-05T07:38:34.489Z,95611.19
2022-08-05T07:42:07.098Z,95616.34
2022-08-05T07:43:59.242Z,95605.47
2022-08-05T07:46:30.611Z,95610.56
2022-08-05T07:49:05.461Z,95603.75
2022-08-05T07:51:48.635Z,95613.34
2022-08-05T07:54:30.925Z,95606.06
2022-08-05T07:57:17.612Z,95614.69
2022-08-05T07:59:53.630Z,95612.06
2022-08-05T08:02:31.318Z,95607.22
2022-08-05T08:05:17.395Z,95587.78
2022-08-05T08:07:59.762Z,95583.22
2022-08-05T08:10:30.525Z,95603.69
2022-08-05T08:12:59.452Z,95607.34
2022-08-05T08:16:33.366Z,95597.59
2022-08-05T08:18:20.819Z,95602.53
2022-08-05T08:21:03.134Z,95598.53
2022-08-05T08:24:02.489Z,95605.53
2022-08-05T08:26:26.782Z,95610.09
2022-08-05T08:29:21.636Z,95606.88
2022-08-05T08:31:51.504Z,95612.50
2022-08-05T08:34:30.719Z,95605.91
2022-08-05T08:37:04.798Z,95594.94
2022-08-05T08:39:37.386Z,95600.72
2022-08-05T08:42:33.868Z,95599.56
2022-08-05T08:45:18.935Z,95599.28
2022-08-05T08:48:07.538Z,95601.38
2022-08-05T08:51:03.455Z,95599.69
2022-08-05T08:53:40.177Z,95603.44
2022-08-05T08:56:13.599Z,95609.22
2022-08-05T08:58:47.503Z,95604.31
2022-08-05T09:01:19.672Z,95607.38
2022-08-05T09:03:55.723Z,95606.38
2022-08-05T09:06:30.269Z,95596.69
2022-08-05T09:09:01.509Z,95604.78
2022-08-05T09:11:51.835Z,95601.09
2022-08-05T09:14:56.577Z,95612.28
2022-08-05T09:17:15.961Z,95607.50
2022-08-05T09:20:04.847Z,95611.97
2022-08-05T09:23:19.730Z,95622.78
2022-08-05T09:26:01.166Z,95620.66
2022-08-05T09:28:34.220Z,95620.03
2022-08-05T09:31:23.353Z,95612.31
2022-08-05T09:34:13.073Z,95620.00
2022-08-05T09:36:56.017Z,95627.81
2022-08-05T09:39:45.679Z,95625.19
2022-08-05T09:42:24.309Z,95623.41
2022-08-05T09:45:17.625Z,95619.44
2022-08-05T09:47:55.813Z,95624.06
2022-08-05T09:50:38.814Z,95601.28
2022-08-05T09:53:22.902Z,95624.75
2022-08-05T09:56:04.777Z,95617.28
2022-08-05T09:58:42.405Z,95627.50
2022-08-05T10:01:31.937Z,95631.13
2022-08-05T10:04:10.462Z,95623.97
2022-08-05T10:06:54.633Z,95632.34
2022-08-05T10:09:27.490Z,95639.13
2022-08-05T10:12:30.414Z,95633.41
2022-08-05T10:15:20.221Z,95640.59
2022-08-05T10:18:14.656Z,95637.09
2022-08-05T10:21:11.921Z,95634.72
2022-08-05T10:24:00.164Z,95622.19
2022-08-05T10:26:32.575Z,95633.91
2022-08-05T10:29:03.184Z,95630.44
2022-08-05T10:33:02.199Z,95628.31
2022-08-05T10:34:25.747Z,95625.31
2022-08-05T10:37:00.024Z,95620.75
2022-08-05T10:40:04.019Z,95623.84
2022-08-05T10:42:32.491Z,95632.97
2022-08-05T10:45:21.434Z,95640.59
2022-08-05T10:48:30.991Z,95646.97
2022-08-05T10:51:21.686Z,95643.97
2022-08-05T10:53:51.731Z,95658.84
2022-08-05T10:56:26.336Z,95649.22
2022-08-05T10:58:55.220Z,95655.91
2022-08-05T11:02:03.796Z,95648.69
2022-08-05T11:04:26.300Z,95656.00
2022-08-05T11:06:58.646Z,95652.13
2022-08-05T11:09:48.972Z,95653.75
2022-08-05T11:12:41.226Z,95659.19
2022-08-05T11:15:21.513Z,95650.34
2022-08-05T11:18:26.946Z,95650.78
2022-08-05T11:20:56.080Z,95654.38
2022-08-05T11:24:02.633Z,95655.69
2022-08-05T11:26:32.659Z,95667.41
2022-08-05T11:29:11.709Z,95659.75
2022-08-05T11:31:54.400Z,95669.56
2022-08-05T11:34:51.010Z,95667.28
2022-08-05T11:38:27.769Z,95669.69
2022-08-05T11:41:01.814Z,95662.84
2022-08-05T11:44:08.541Z,95661.38
2022-08-05T11:46:58.126Z,95664.19
2022-08-05T11:49:28.275Z,95669.31
2022-08-05T11:51:57.516Z,95662.41
2022-08-05T11:54:33.489Z,95676.03
2022-08-05T11:57:08.094Z,95675.00
2022-08-05T11:59:53.663Z,95678.19
2022-08-05T12:02:33.824Z,95669.72
2022-08-05T12:05:08.018Z,95661.25
2022-08-05T12:08:03.806Z,95673.63
2022-08-05T12:10:45.505Z,95672.06
2022-08-05T12:13:28.355Z,95674.38
2022-08-05T12:16:15.599Z,95656.25
2022-08-05T12:18:48.994Z,95673.59
2022-08-05T12:21:33.950Z,95677.44
2022-08-05T12:24:17.323Z,95684.00
2022-08-05T12:26:48.131Z,95685.56
2022-08-05T12:29:26.480Z,95687.53
2022-08-05T12:32:01.963Z,95687.53
2022-08-05T12:34:35.874Z,95682.91
2022-08-05T12:37:17.379Z,95687.56
2022-08-05T12:39:53.993Z,95682.94
2022-08-05T12:42:25.351Z,95689.16
2022-08-05T12:45:03.181Z,95685.69
2022-08-05T12:47:43.453Z,95681.81
2022-08-05T12:50:27.651Z,95684.53
2022-08-05T12:53:00.561Z,95691.88
2022-08-05T12:55:32.890Z,95689.19
2022-08-05T12:58:51.396Z,95690.31
2022-08-05T13:02:03.681Z,95680.31
2022-08-05T13:03:43.252Z,95688.81
2022-08-05T13:06:17.636Z,95679.16
2022-08-05T13:08:51.621Z,95686.13
2022-08-05T13:11:25.559Z,95683.81
2022-08-05T13:14:35.925Z,95688.84
2022-08-05T13:17:20.462Z,95690.38
2022-08-05T13:20:06.143Z,95699.69
2022-08-05T13:22:43.927Z,95697.75
2022-08-05T13:25:19.449Z,95701.22
2022-08-05T13:27:53.836Z,95710.50
2022-08-05T13:30:35.400Z,95699.25
2022-08-05T13:33:05.811Z,95698.50
2022-08-05T13:35:47.504Z,95709.72
2022-08-05T13:38:30.763Z,95713.97
2022-08-05T13:41:05.899Z,95711.63
2022-08-05T13:43:43.348Z,95713.97
2022-08-05T13:46:16.528Z,95711.25
2022-08-05T13:49:05.234Z,95717.06
2022-08-05T13:51:41.467Z,95712.00
2022-08-05T13:54:12.752Z,95714.34
2022-08-05T13:56:45.074Z,95716.66
2022-08-05T13:59:27.026Z,95693.50
2022-08-05T14:02:00.113Z,95703.53
2022-08-05T14:04:51.310Z,95710.88
2022-08-05T14:07:55.637Z,95706.25
2022-08-05T14:10:18.461Z,95708.91
2022-08-05T14:12:48.862Z,95699.66
2022-08-05T14:16:05.682Z,95704.28
2022-08-05T14:18:17.885Z,95710.84
2022-08-05T14:20:48.696Z,95713.53
2022-08-05T14:23:23.432Z,95705.78
2022-08-05T14:25:59.573Z,95703.06
2022-08-05T14:28:30.075Z,95712.72
2022-08-05T14:31:00.579Z,95711.94
2022-08-05T14:33:56.802Z,95713.84
2022-08-05T14:36:21.308Z,95709.56
2022-08-05T14:38:51.883Z,95694.47
2022-08-05T14:41:21.083Z,95707.56
2022-08-05T14:44:01.781Z,95701.34
2022-08-05T14:46:38.509Z,95699.38
2022-08-05T14:49:08.137Z,95705.53
2022-08-05T14:51:38.562Z,95703.91
2022-08-05T14:54:28.242Z,95698.88
2022-08-05T14:56:59.837Z,95689.19
2022-08-05T14:59:35.797Z,95692.63
2022-08-05T15:02:15.100Z,95676.38
2022-08-05T15:04:47.922Z,95680.22
2022-08-05T15:08:08.765Z,95690.25
2022-08-05T15:10:09.626Z,95689.03
2022-08-05T15:12:59.841Z,95682.09
2022-08-05T15:15:56.003Z,95678.97
2022-08-05T15:18:18.018Z,95690.91
2022-08-05T15:20:47.326Z,95687.78
2022-08-05T15:23:16.777Z,95689.69
2022-08-05T15:25:52.933Z,95692.75
2022-08-05T15:28:27.611Z,95691.22
2022-08-05T15:30:57.627Z,95695.41
2022-08-05T15:34:05.722Z,95691.59
2022-08-05T15:36:17.548Z,95695.41
2022-08-05T15:40:40.896Z,95688.88
2022-08-05T15:41:55.954Z,95684.59
2022-08-05T15:44:30.826Z,95691.91
2022-08-05T15:47:02.470Z,95688.38
2022-08-05T15:49:48.029Z,95689.56
2022-08-05T15:52:29.188Z,95675.59
2022-08-05T15:55:15.972Z,95685.59
2022-08-05T15:57:49.101Z,95692.91
2022-08-05T16:00:26.538Z,95696.00
2022-08-05T16:03:08.992Z,95694.06
2022-08-05T16:05:39.010Z,95694.06
2022-08-05T16:08:10.741Z,95686.34
2022-08-05T16:10:45.059Z,95686.69
2022-08-05T16:13:23.775Z,95692.06
2022-08-05T16:15:52.907Z,95686.25
2022-08-05T16:18:21.796Z,95688.19
2022-08-05T16:20:57.827Z,95689.31
2022-08-05T16:23:28.804Z,95687.38
2022-08-05T16:26:18.262Z,95682.75
2022-08-05T16:28:47.171Z,95693.94
2022-08-05T16:31:16.519Z,95691.59
2022-08-05T16:33:46.473Z,95692.38
2022-08-05T16:36:20.409Z,95687.00
2022-08-05T16:38:54.952Z,95689.66
2022-08-05T16:42:14.978Z,95693.09
2022-08-05T16:44:16.497Z,95695.00
2022-08-05T16:46:55.754Z,95688.03
2022-08-05T16:49:27.092Z,95693.47
2022-08-05T16:51:58.002Z,95693.84
2022-08-05T16:54:32.864Z,95691.09
2022-08-05T16:57:02.041Z,95686.03
2022-08-05T16:59:31.073Z,95697.25
2022-08-05T17:02:00.939Z,95687.56
2022-08-05T17:04:30.316Z,95679.09
2022-08-05T17:07:03.527Z,95686.00
2022-08-05T17:09:58.172Z,95684.47
2022-08-05T17:12:51.676Z,95684.06
2022-08-05T17:15:19.614Z,95679.47
2022-08-05T17:17:54.476Z,95674.06
2022-08-05T17:20:25.101Z,95673.28
2022-08-05T17:22:55.887Z,95667.50
2022-08-05T17:25:33.765Z,95675.59
2022-08-05T17:28:09.332Z,95663.31
2022-08-05T17:30:50.424Z,95660.94
2022-08-05T17:33:21.805Z,95667.94
2022-08-05T17:36:07.526Z,95668.69
2022-08-05T17:38:39.828Z,95668.69
2022-08-05T17:41:22.658Z,95667.53
2022-08-05T17:43:58.794Z,95671.81
2022-08-05T17:46:27.940Z,95664.50
2022-08-05T17:48:58.043Z,95666.06
2022-08-05T17:51:26.973Z,95659.53
2022-08-05T17:53:55.816Z,95672.59
2022-08-05T17:56:28.275Z,95650.22
2022-08-05T17:58:57.480Z,95632.78
2022-08-05T18:01:28.144Z,95662.19
2022-08-05T18:04:21.223Z,95654.09
2022-08-05T18:06:56.036Z,95658.72
2022-08-05T18:10:00.414Z,95657.53
2022-08-05T18:12:24.016Z,95645.91
2022-08-05T18:14:53.663Z,95650.13
2022-08-05T18:17:59.067Z,95655.56
2022-08-05T18:20:14.970Z,95652.06
2022-08-05T18:22:46.115Z,95650.09
2022-08-05T18:25:23.298Z,95654.75
2022-08-05T18:27:54.083Z,95647.00
2022-08-05T18:30:22.847Z,95643.16
2022-08-05T18:33:00.381Z,95655.13
2022-08-05T18:36:01.372Z,95655.13
2022-08-05T18:38:25.944Z,95657.81
2022-08-05T18:41:56.590Z,95659.31
2022-08-05T18:43:49.139Z,95659.69
2022-08-05T18:46:20.223Z,95658.53
2022-08-05T18:48:52.752Z,95652.75
2022-08-05T18:52:06.454Z,95659.31
2022-08-05T18:54:31.796Z,95662.81
2022-08-05T18:57:01.475Z,95660.53
2022-08-05T18:59:42.908Z,95655.50
2022-08-05T19:02:26.706Z,95657.06
2022-08-05T19:06:05.722Z,95658.63
2022-08-05T19:07:53.232Z,95660.56
2022-08-05T19:10:26.564Z,95658.63
2022-08-05T19:12:58.389Z,95662.50
2022-08-05T19:15:58.138Z,95663.25
2022-08-05T19:18:20.806Z,95664.03
2022-08-05T19:20:56.312Z,95653.19
2022-08-05T19:24:05.423Z,95655.94
2022-08-05T19:26:15.128Z,95663.25
2022-08-05T19:28:45.313Z,95653.56
2022-08-05T19:31:17.941Z,95659.00
2022-08-05T19:33:56.711Z,95659.75
2022-08-05T19:36:27.009Z,95658.19
2022-08-05T19:39:00.967Z,95648.88
2022-08-05T19:41:58.077Z,95652.44
2022-08-05T19:44:20.696Z,95659.34
2022-08-05T19:46:50.276Z,95656.31
2022-08-05T19:49:19.500Z,95649.31
2022-08-05T19:52:08.629Z,95650.81
2022-08-05T19:54:37.301Z,95660.13
2022-08-05T19:57:09.252Z,95654.31
2022-08-05T19:59:59.573Z,95645.00
2022-08-05T20:02:31.695Z,95658.19
2022-08-05T20:05:00.765Z,95655.50
2022-08-05T20:07:48.206Z,95648.13
2022-08-05T20:10:22.433Z,95655.13
2022-08-05T20:12:53.407Z,95661.69
2022-08-05T20:15:48.333Z,95667.41
2022-08-05T20:18:33.606Z,95646.13
2022-08-05T20:21:00.688Z,95658.94
2022-08-05T20:23:44.481Z,95666.28
2022-08-05T20:26:25.476Z,95657.03
2022-08-05T20:28:56.881Z,95653.19
2022-08-05T20:31:43.037Z,95659.72
2022-08-05T20:34:17.364Z,95650.09
2022-08-05T20:36:46.586Z,95655.50
2022-08-05T20:39:16.885Z,95636.88
2022-08-05T20:41:47.697Z,95658.19
2022-08-05T20:44:30.223Z,95647.75
2022-08-05T20:47:06.634Z,95657.81
2022-08-05T20:49:39.419Z,95648.94
2022-08-05T20:52:10.623Z,95641.94
2022-08-05T20:54:59.517Z,95647.81
2022-08-05T20:57:42.974Z,95652.06
2022-08-05T21:00:41.411Z,95655.50
2022-08-05T21:03:07.215Z,95654.38
2022-08-05T21:05:53.874Z,95649.75
2022-08-05T21:08:35.984Z,95650.88
2022-08-05T21:11:12.590Z,95639.34
2022-08-05T21:13:55.612Z,95651.31
2022-08-05T21:16:30.633Z,95649.38
2022-08-05T21:19:01.568Z,95651.31
2022-08-05T21:21:44.131Z,95651.31
2022-08-05T21:24:19.989Z,95648.56
2022-08-05T21:26:57.974Z,95652.81
2022-08-05T21:29:32.243Z,95653.25
2022-08-05T21:32:05.007Z,95658.25
2022-08-05T21:34:35.545Z,95661.34
2022-08-05T21:37:05.512Z,95662.84
2022-08-05T21:39:34.917Z,95664.41
2022-08-05T21:42:41.289Z,95657.47
2022-08-05T21:44:59.712Z,95659.81
2022-08-05T21:47:54.956Z,95661.00
2022-08-05T21:50:18.458Z,95660.63
2022-08-05T21:52:47.636Z,95659.88
2022-08-05T21:55:17.717Z,95661.75
2022-08-05T21:58:07.192Z,95671.50
2022-08-05T22:00:40.338Z,95667.66
2022-08-05T22:03:10.616Z,95662.66
2022-08-05T22:05:48.634Z,95670.03
2022-08-05T22:08:22.347Z,95667.72
2022-08-05T22:10:53.877Z,95659.25
2022-08-05T22:14:18.276Z,95673.91
2022-08-05T22:16:39.440Z,95663.53
2022-08-05T22:19:00.204Z,95672.44
2022-08-05T22:21:29.542Z,95669.38
2022-08-05T22:24:40.883Z,95679.78
2022-08-05T22:27:25.825Z,95677.88
2022-08-05T22:30:17.158Z,95672.91
2022-08-05T22:32:46.319Z,95682.94
2022-08-05T22:35:15.255Z,95674.53
2022-08-05T22:37:59.292Z,95674.16
2022-08-05T22:40:30.766Z,95671.84
2022-08-05T22:43:00.030Z,95685.00
2022-08-05T22:45:29.016Z,95686.59
2022-08-05T22:47:59.546Z,95666.06
2022-08-05T22:50:28.538Z,95691.97
2022-08-05T22:52:57.453Z,95672.25
2022-08-05T22:55:26.563Z,95686.91
2022-08-05T22:58:05.820Z,95686.91
2022-08-05T23:00:41.322Z,95693.09
2022-08-05T23:03:13.550Z,95687.28
2022-08-05T23:05:42.679Z,95695.38
2022-08-05T23:08:12.998Z,95683.41
2022-08-05T23:10:43.939Z,95696.19
2022-08-05T23:13:12.955Z,95690.78
2022-08-05T23:15:41.783Z,95693.47
2022-08-05T23:18:15.959Z,95695.03
2022-08-05T23:20:45.186Z,95694.28
2022-08-05T23:23:14.008Z,95693.91
2022-08-05T23:25:52.196Z,95685.81
2022-08-05T23:28:28.958Z,95684.28
2022-08-05T23:31:15.667Z,95687.78
2022-08-05T23:34:04.699Z,95688.50
2022-08-05T23:36:44.348Z,95683.91
2022-08-05T23:39:16.571Z,95690.50
2022-08-05T23:41:56.270Z,95685.91
2022-08-05T23:44:31.132Z,95694.78
2022-08-05T23:47:15.234Z,95694.06
2022-08-05T23:49:46.087Z,95702.91
2022-08-05T23:52:27.510Z,95700.97
2022-08-05T23:54:59.756Z,95696.03
2022-08-05T23:57:28.737Z,95691.78
